TimePST,TemperatureF,Dew PointF,Humidity,Sea Level PressureIn,VisibilityMPH,Wind Direction,Wind SpeedMPH,Gust SpeedMPH,PrecipitationIn,Events,Conditions,WindDirDegrees,DateUTC
12:15 AM,41.0,41.0,100,30.56,8.0,Calm,Calm,-,N/A,,Overcast,0,2013-01-30 08:15:00
12:35 AM,42.8,42.8,100,30.56,8.0,SSE,3.5,-,N/A,,Overcast,150,2013-01-30 08:35:00
12:55 AM,41.0,39.2,93,30.57,1.0,ESE,5.8,-,N/A,,Overcast,120,2013-01-30 08:55:00
1:15 AM,42.8,41.0,93,30.57,0.5,SSE,4.6,-,N/A,,Overcast,150,2013-01-30 09:15:00
1:35 AM,42.8,42.8,100,30.57,0.2,SSE,4.6,-,N/A,,Overcast,150,2013-01-30 09:35:00
1:55 AM,42.8,41.0,93,30.57,0.5,SE,5.8,-,N/A,,Overcast,140,2013-01-30 09:55:00
2:15 AM,42.8,42.8,100,30.57,0.8,SE,6.9,-,N/A,,Overcast,140,2013-01-30 10:15:00
2:35 AM,42.8,41.0,93,30.57,1.0,SE,4.6,-,N/A,,Overcast,140,2013-01-30 10:35:00
2:55 AM,41.0,41.0,100,30.57,1.0,SSE,6.9,-,N/A,,Overcast,150,2013-01-30 10:55:00
3:15 AM,41.0,41.0,100,30.57,9.0,SSE,5.8,-,N/A,,Overcast,160,2013-01-30 11:15:00
3:35 AM,42.8,42.8,100,30.56,10.0,SE,6.9,-,N/A,,Overcast,140,2013-01-30 11:35:00
3:55 AM,41.0,39.2,93,30.56,10.0,SSE,8.1,-,N/A,,Overcast,150,2013-01-30 11:55:00
4:15 AM,41.0,39.2,93,30.56,10.0,SSE,5.8,-,N/A,,Overcast,150,2013-01-30 12:15:00
4:35 AM,41.0,41.0,100,30.56,10.0,SSE,8.1,-,N/A,,Overcast,150,2013-01-30 12:35:00
4:55 AM,41.0,41.0,100,30.56,10.0,SSE,8.1,-,N/A,,Overcast,150,2013-01-30 12:55:00
5:15 AM,41.0,41.0,100,30.56,10.0,SSE,9.2,-,N/A,,Overcast,150,2013-01-30 13:15:00
5:35 AM,41.0,41.0,100,30.56,10.0,SSE,6.9,-,N/A,,Overcast,150,2013-01-30 13:35:00
5:55 AM,41.0,41.0,100,30.56,10.0,SSE,9.2,-,N/A,,Overcast,160,2013-01-30 13:55:00
6:15 AM,41.0,41.0,100,30.56,10.0,SSE,8.1,-,N/A,,Overcast,150,2013-01-30 14:15:00
6:35 AM,41.0,41.0,100,30.57,10.0,SSE,8.1,-,N/A,,Overcast,150,2013-01-30 14:35:00
6:55 AM,41.0,41.0,100,30.57,10.0,SSE,8.1,-,N/A,,Overcast,150,2013-01-30 14:55:00
7:15 AM,41.0,41.0,100,30.57,10.0,SSE,9.2,-,N/A,,Overcast,150,2013-01-30 15:15:00
7:35 AM,41.0,41.0,100,30.57,10.0,SSE,8.1,-,N/A,,Overcast,150,2013-01-30 15:35:00
7:55 AM,41.0,39.2,93,30.57,10.0,SSE,10.4,-,N/A,,Overcast,150,2013-01-30 15:55:00
8:15 AM,42.8,42.8,100,30.58,10.0,SSE,9.2,-,N/A,,Overcast,160,2013-01-30 16:15:00
8:35 AM,42.8,42.8,100,30.58,10.0,SSE,9.2,-,N/A,,Overcast,160,2013-01-30 16:35:00
8:55 AM,42.8,41.0,93,30.58,10.0,SSE,10.4,-,N/A,,Overcast,160,2013-01-30 16:55:00
9:15 AM,42.8,41.0,93,30.58,10.0,SSE,9.2,-,N/A,,Overcast,150,2013-01-30 17:15:00
9:35 AM,42.8,42.8,100,30.57,10.0,SSE,10.4,-,N/A,,Overcast,150,2013-01-30 17:35:00
9:55 AM,44.6,44.6,100,30.58,10.0,SSE,9.2,-,N/A,,Overcast,150,2013-01-30 17:55:00
10:15 AM,44.6,44.6,100,30.58,10.0,SE,6.9,-,N/A,,Overcast,140,2013-01-30 18:15:00
10:35 AM,44.6,44.6,100,30.58,10.0,SSE,6.9,-,N/A,,Overcast,150,2013-01-30 18:35:00
10:55 AM,44.6,44.6,100,30.58,10.0,SE,5.8,-,N/A,,Overcast,130,2013-01-30 18:55:00
11:15 AM,46.4,44.6,93,30.58,10.0,SE,5.8,-,N/A,,Overcast,130,2013-01-30 19:15:00
11:35 AM,46.4,46.4,100,30.58,10.0,SSE,5.8,-,N/A,,Overcast,160,2013-01-30 19:35:00
11:55 AM,48.2,46.4,93,30.57,10.0,SE,3.5,-,N/A,,Overcast,140,2013-01-30 19:55:00
12:15 PM,48.2,46.4,93,30.56,8.0,Calm,Calm,-,N/A,,Overcast,0,2013-01-30 20:15:00
12:35 PM,48.2,46.4,93,30.56,2.5,Calm,Calm,-,N/A,,Overcast,0,2013-01-30 20:35:00
12:55 PM,48.2,46.4,93,30.56,3.0,Calm,Calm,-,N/A,,Overcast,0,2013-01-30 20:55:00
1:15 PM,46.4,46.4,100,30.56,4.0,Calm,Calm,-,N/A,,Overcast,0,2013-01-30 21:15:00
1:35 PM,48.2,48.2,100,30.55,2.0,Calm,Calm,-,N/A,,Overcast,0,2013-01-30 21:35:00
1:55 PM,48.2,48.2,100,30.54,2.5,Calm,Calm,-,N/A,,Overcast,0,2013-01-30 21:55:00
2:15 PM,48.2,46.4,93,30.54,4.0,Calm,Calm,-,N/A,,Overcast,0,2013-01-30 22:15:00
2:35 PM,48.2,46.4,93,30.53,8.0,Calm,Calm,-,N/A,,Overcast,0,2013-01-30 22:35:00
2:55 PM,48.2,46.4,93,30.54,10.0,Calm,Calm,-,N/A,,Overcast,0,2013-01-30 22:55:00
3:15 PM,48.2,46.4,93,30.53,3.0,Calm,Calm,-,N/A,,Overcast,0,2013-01-30 23:15:00
3:35 PM,48.2,48.2,100,30.53,2.0,Calm,Calm,-,N/A,,Overcast,0,2013-01-30 23:35:00
3:55 PM,48.2,48.2,100,30.52,6.0,Calm,Calm,-,N/A,,Overcast,0,2013-01-30 23:55:00
4:15 PM,48.2,48.2,100,30.52,8.0,NNW,3.5,-,N/A,,Overcast,340,2013-01-31 00:15:00
4:35 PM,48.2,46.4,93,30.52,9.0,NNW,3.5,-,N/A,,Overcast,340,2013-01-31 00:35:00
4:55 PM,48.2,46.4,93,30.52,9.0,North,3.5,-,N/A,,Overcast,360,2013-01-31 00:55:00
5:15 PM,48.2,46.4,93,30.51,9.0,North,3.5,-,N/A,,Overcast,10,2013-01-31 01:15:00
5:35 PM,48.2,46.4,93,30.51,10.0,Calm,Calm,-,N/A,,Overcast,0,2013-01-31 01:35:00
5:55 PM,48.2,46.4,93,30.51,10.0,Calm,Calm,-,N/A,,Overcast,0,2013-01-31 01:55:00
6:15 PM,48.2,48.2,100,30.50,10.0,Calm,Calm,-,N/A,,Mostly Cloudy,0,2013-01-31 02:15:00
6:35 PM,48.2,48.2,100,30.50,9.0,Calm,Calm,-,N/A,,Partly Cloudy,0,2013-01-31 02:35:00
6:55 PM,46.4,46.4,100,30.50,7.0,Calm,Calm,-,N/A,,Clear,0,2013-01-31 02:55:00
7:15 PM,46.4,46.4,100,30.49,9.0,Calm,Calm,-,N/A,,Clear,0,2013-01-31 03:15:00
7:35 PM,46.4,46.4,100,30.49,0.5,Calm,Calm,-,N/A,,Mostly Cloudy,0,2013-01-31 03:35:00
7:55 PM,44.6,42.8,93,30.49,0.8,North,3.5,-,N/A,,Overcast,360,2013-01-31 03:55:00
8:15 PM,42.8,41.0,93,30.49,0.2,Calm,Calm,-,N/A,,Overcast,0,2013-01-31 04:15:00
8:35 PM,42.8,42.8,100,30.49,0.2,Calm,Calm,-,N/A,,Overcast,0,2013-01-31 04:35:00
8:55 PM,42.8,42.8,100,30.50,0.2,Calm,Calm,-,N/A,,Overcast,0,2013-01-31 04:55:00
9:15 PM,42.8,42.8,100,30.50,0.2,Calm,Calm,-,N/A,,Overcast,0,2013-01-31 05:15:00
9:35 PM,41.0,41.0,100,30.49,0.2,Calm,Calm,-,N/A,,Overcast,0,2013-01-31 05:35:00
9:55 PM,41.0,41.0,100,30.49,0.2,Calm,Calm,-,N/A,,Overcast,0,2013-01-31 05:55:00
10:15 PM,41.0,41.0,100,30.49,0.2,Calm,Calm,-,N/A,,Overcast,0,2013-01-31 06:15:00
10:35 PM,41.0,39.2,93,30.49,0.5,Calm,Calm,-,N/A,,Overcast,0,2013-01-31 06:35:00
10:55 PM,39.2,39.2,100,30.49,0.2,Calm,Calm,-,N/A,,Overcast,0,2013-01-31 06:55:00
11:15 PM,39.2,37.4,93,30.49,0.2,Calm,Calm,-,N/A,,Overcast,0,2013-01-31 07:15:00
11:35 PM,39.2,37.4,93,30.49,0.5,Calm,Calm,-,N/A,,Overcast,0,2013-01-31 07:35:00
11:55 PM,39.2,39.2,100,30.49,0.2,Calm,Calm,-,N/A,,Overcast,0,2013-01-31 07:55:00